Kirtland Hills, Ohio
Current Conditions -  °F | °C
As of 12:45 PM on Friday 28 Nov 2014 (Local Time) from KCGF Reporting Station
Overcast Overcast  
Wind Chill: 14°   Ceiling: 2100
Heat Index: 27°   Visibility: 7mi
Dew Point: 18°   Wind: 16mph
Humidity: 69%   Direction: 240°WSW
Pressure: 30.28"   Gusts: NA
Location:  41.6111°N, 81.3789°W
Report Text: KCGF 281745Z 24014KT 7SM BKN021 OVC035 M03/M08 A3028
Loading
Personal Weather Stations






























Interactive Weather Map New forecast layout! Learn more

10-Day Weather Forecast

Advertisements
Track Severe Weather on mobile